createdAt,value
2022-08-07T00:02:39.723Z,12.94
2022-08-07T00:05:05.824Z,12.91
2022-08-07T00:07:40.543Z,12.84
2022-08-07T00:10:26.082Z,12.86
2022-08-07T00:13:00.238Z,12.72
2022-08-07T00:15:37.725Z,12.60
2022-08-07T00:18:24.049Z,12.55
2022-08-07T00:21:01.876Z,12.51
2022-08-07T00:23:36.773Z,12.47
2022-08-07T00:26:18.607Z,12.46
2022-08-07T00:29:01.303Z,12.41
2022-08-07T00:31:37.340Z,12.44
2022-08-07T00:34:08.541Z,12.41
2022-08-07T00:36:38.516Z,12.36
2022-08-07T00:39:12.838Z,12.26
2022-08-07T00:42:01.812Z,12.24
2022-08-07T00:44:34.984Z,12.24
2022-08-07T00:47:15.549Z,12.25
2022-08-07T00:50:19.096Z,12.26
2022-08-07T00:52:48.285Z,12.18
2022-08-07T00:55:46.488Z,12.12
2022-08-07T00:58:06.959Z,12.05
2022-08-07T01:00:36.329Z,11.91
2022-08-07T01:03:05.794Z,11.79
2022-08-07T01:05:36.543Z,11.79
2022-08-07T01:08:08.971Z,11.76
2022-08-07T01:10:39.427Z,11.66
2022-08-07T01:13:16.866Z,11.55
2022-08-07T01:16:05.727Z,11.57
2022-08-07T01:18:35.571Z,11.62
2022-08-07T01:21:22.753Z,11.68
2022-08-07T01:23:52.794Z,11.71
2022-08-07T01:26:23.232Z,11.71
2022-08-07T01:28:56.511Z,11.74
2022-08-07T01:31:42.327Z,11.76
2022-08-07T01:34:18.593Z,11.79
2022-08-07T01:36:52.663Z,11.77
2022-08-07T01:39:40.504Z,11.79
2022-08-07T01:42:39.810Z,11.68
2022-08-07T01:45:15.867Z,11.64
2022-08-07T01:48:29.896Z,11.66
2022-08-07T01:50:42.845Z,11.69
2022-08-07T01:53:21.740Z,11.67
2022-08-07T01:56:06.592Z,11.60
2022-08-07T01:58:40.848Z,11.59
2022-08-07T02:01:25.709Z,11.51
2022-08-07T02:04:06.536Z,11.37
2022-08-07T02:06:37.275Z,11.25
2022-08-07T02:09:08.332Z,11.21
2022-08-07T02:12:05.073Z,11.12
2022-08-07T02:14:35.742Z,11.18
2022-08-07T02:17:06.165Z,11.26
2022-08-07T02:20:04.606Z,11.29
2022-08-07T02:22:27.926Z,11.33
2022-08-07T02:24:59.086Z,11.35
2022-08-07T02:27:34.754Z,11.24
2022-08-07T02:30:07.086Z,11.23
2022-08-07T02:33:00.206Z,11.14
2022-08-07T02:36:29.322Z,10.95
2022-08-07T02:38:19.110Z,10.86
2022-08-07T02:40:58.773Z,10.89
2022-08-07T02:43:29.460Z,10.79
2022-08-07T02:46:02.396Z,10.86
2022-08-07T02:48:32.661Z,10.84
2022-08-07T02:51:28.963Z,10.89
2022-08-07T02:53:59.107Z,10.85
2022-08-07T02:56:29.102Z,10.84
2022-08-07T02:59:03.810Z,10.81
2022-08-07T03:01:39.273Z,10.77
2022-08-07T03:04:12.808Z,10.78
2022-08-07T03:06:44.581Z,10.83
2022-08-07T03:09:42.141Z,10.78
2022-08-07T03:12:21.756Z,10.73
2022-08-07T03:14:52.898Z,10.64
2022-08-07T03:17:22.387Z,10.66
2022-08-07T03:19:55.075Z,10.62
2022-08-07T03:22:29.652Z,10.68
2022-08-07T03:25:00.494Z,10.75
2022-08-07T03:27:59.127Z,10.72
2022-08-07T03:30:20.632Z,10.74
2022-08-07T03:32:58.754Z,10.70
2022-08-07T03:35:43.395Z,10.75
2022-08-07T03:38:20.938Z,10.66
2022-08-07T03:40:57.265Z,10.60
2022-08-07T03:43:32.350Z,10.66
2022-08-07T03:46:03.212Z,10.70
2022-08-07T03:48:32.891Z,10.76
2022-08-07T03:51:03.321Z,10.79
2022-08-07T03:54:05.499Z,10.81
2022-08-07T03:56:33.402Z,10.83
2022-08-07T03:59:09.436Z,10.83
2022-08-07T04:01:45.780Z,10.80
2022-08-07T04:04:17.437Z,10.81
2022-08-07T04:06:50.837Z,10.78
2022-08-07T04:09:23.413Z,10.74
2022-08-07T04:12:25.795Z,10.70
2022-08-07T04:14:46.289Z,10.72
2022-08-07T04:17:21.282Z,10.79
2022-08-07T04:19:54.507Z,10.82
2022-08-07T04:22:27.505Z,10.83
2022-08-07T04:25:01.652Z,10.82
2022-08-07T04:27:39.321Z,10.80
2022-08-07T04:30:35.684Z,10.78
2022-08-07T04:33:13.989Z,10.74
2022-08-07T04:35:50.212Z,10.73
2022-08-07T04:38:20.012Z,10.74
2022-08-07T04:40:51.954Z,10.74
2022-08-07T04:43:53.482Z,10.82
2022-08-07T04:46:29.290Z,10.76
2022-08-07T04:49:25.602Z,10.71
2022-08-07T04:52:04.160Z,10.78
2022-08-07T04:54:37.581Z,10.84
2022-08-07T04:58:16.264Z,10.83
2022-08-07T05:00:36.743Z,10.84
2022-08-07T05:04:00.370Z,10.87
2022-08-07T05:06:20.148Z,10.88
2022-08-07T05:09:19.354Z,11.01
2022-08-07T05:12:10.797Z,11.06
2022-08-07T05:14:53.976Z,11.15
2022-08-07T05:17:52.480Z,11.31
2022-08-07T05:20:24.795Z,11.40
2022-08-07T05:23:00.245Z,11.48
2022-08-07T05:26:10.582Z,11.59
2022-08-07T05:28:23.047Z,11.70
2022-08-07T05:30:57.307Z,11.83
2022-08-07T05:33:31.373Z,11.95
2022-08-07T05:36:06.698Z,12.14
2022-08-07T05:39:00.495Z,12.34
2022-08-07T05:41:26.180Z,12.44
2022-08-07T05:44:15.935Z,12.51
2022-08-07T05:47:00.216Z,12.61
2022-08-07T05:49:40.965Z,12.72
2022-08-07T05:52:11.689Z,12.87
2022-08-07T05:54:44.587Z,13.01
2022-08-07T05:57:23.854Z,13.31
2022-08-07T05:59:57.746Z,13.63
2022-08-07T06:02:29.568Z,13.99
2022-08-07T06:05:05.686Z,14.31
2022-08-07T06:08:30.297Z,14.52
2022-08-07T06:10:26.375Z,14.76
2022-08-07T06:12:55.726Z,15.02
2022-08-07T06:15:42.258Z,15.30
2022-08-07T06:18:12.344Z,15.59
2022-08-07T06:20:50.421Z,15.70
2022-08-07T06:24:38.408Z,15.75
2022-08-07T06:26:27.484Z,15.93
2022-08-07T06:29:01.093Z,15.98
2022-08-07T06:31:46.974Z,16.13
2022-08-07T06:34:20.730Z,16.26
2022-08-07T06:36:51.998Z,16.33
2022-08-07T06:40:17.252Z,16.38
2022-08-07T06:42:19.300Z,16.48
2022-08-07T06:44:51.161Z,16.63
2022-08-07T06:47:21.441Z,16.74
2022-08-07T06:49:58.684Z,16.88
2022-08-07T06:52:35.752Z,17.04
2022-08-07T06:55:31.842Z,17.21
2022-08-07T06:58:04.554Z,17.44
2022-08-07T07:00:43.277Z,17.60
2022-08-07T07:03:14.333Z,17.77
2022-08-07T07:06:03.282Z,17.95
2022-08-07T07:08:35.174Z,18.24
2022-08-07T07:11:14.479Z,18.46
2022-08-07T07:14:01.727Z,18.72
2022-08-07T07:16:34.165Z,18.96
2022-08-07T07:19:55.799Z,19.23
2022-08-07T07:22:33.768Z,19.47
2022-08-07T07:25:02.759Z,19.68
2022-08-07T07:27:35.598Z,20.01
2022-08-07T07:30:37.832Z,20.38
2022-08-07T07:33:08.831Z,20.74
2022-08-07T07:35:54.151Z,21.03
2022-08-07T07:38:32.954Z,21.34
2022-08-07T07:41:10.169Z,21.57
2022-08-07T07:44:13.947Z,21.97
2022-08-07T07:46:36.936Z,22.34
2022-08-07T07:50:34.082Z,22.69
2022-08-07T07:52:20.618Z,22.81
2022-08-07T07:54:53.092Z,22.93
2022-08-07T07:57:43.728Z,23.14
2022-08-07T08:00:29.063Z,23.37
2022-08-07T08:03:16.942Z,23.51
2022-08-07T08:06:00.397Z,23.42
2022-08-07T08:08:36.950Z,23.60
2022-08-07T08:11:16.173Z,23.58
2022-08-07T08:13:54.227Z,23.61
2022-08-07T08:16:29.818Z,23.52
2022-08-07T08:19:00.422Z,23.45
2022-08-07T08:22:02.650Z,23.59
2022-08-07T08:24:54.840Z,23.44
2022-08-07T08:27:39.422Z,23.59
2022-08-07T08:30:17.560Z,23.72
2022-08-07T08:33:02.972Z,23.83
2022-08-07T08:35:39.132Z,24.07
2022-08-07T08:38:18.090Z,24.08
2022-08-07T08:40:58.288Z,24.33
2022-08-07T08:43:42.052Z,24.57
2022-08-07T08:46:29.495Z,24.33
2022-08-07T08:49:32.949Z,23.96
2022-08-07T08:52:14.096Z,24.04
2022-08-07T08:54:57.971Z,24.34
2022-08-07T08:57:43.127Z,24.62
2022-08-07T09:00:15.168Z,24.70
2022-08-07T09:03:07.480Z,24.68
2022-08-07T09:05:58.788Z,24.44
2022-08-07T09:08:33.933Z,24.39
2022-08-07T09:11:24.190Z,24.37
2022-08-07T09:14:22.419Z,24.39
2022-08-07T09:17:05.578Z,24.26
2022-08-07T09:20:35.354Z,24.35
2022-08-07T09:24:32.368Z,24.43
2022-08-07T09:26:30.254Z,24.44
2022-08-07T09:30:06.308Z,24.45
2022-08-07T09:32:35.062Z,24.53
2022-08-07T09:36:01.190Z,24.48
2022-08-07T09:38:02.041Z,24.46
2022-08-07T09:40:38.641Z,24.49
2022-08-07T09:44:03.493Z,24.53
2022-08-07T09:47:49.842Z,24.54
2022-08-07T09:50:00.573Z,24.56
2022-08-07T09:52:48.573Z,24.67
2022-08-07T09:55:29.454Z,24.68
2022-08-07T09:58:32.608Z,24.51
2022-08-07T10:01:51.172Z,24.49
2022-08-07T10:04:38.213Z,24.57
2022-08-07T10:07:31.606Z,24.38
2022-08-07T10:10:21.028Z,24.33
2022-08-07T10:13:29.881Z,24.31
2022-08-07T10:16:15.111Z,24.50
2022-08-07T10:19:03.652Z,24.45
2022-08-07T10:22:16.057Z,24.43
2022-08-07T10:25:20.803Z,24.38
2022-08-07T10:28:29.873Z,24.11
2022-08-07T10:31:38.764Z,23.91
2022-08-07T10:34:41.064Z,23.96
2022-08-07T10:38:00.558Z,24.22
2022-08-07T10:40:34.031Z,24.51
2022-08-07T10:43:29.839Z,24.74
2022-08-07T10:46:09.415Z,24.76
2022-08-07T10:49:13.791Z,24.95
2022-08-07T10:52:12.682Z,25.18
2022-08-07T10:55:26.816Z,25.18
2022-08-07T10:58:13.647Z,24.98
2022-08-07T11:00:50.205Z,25.02
2022-08-07T11:03:37.321Z,24.91
2022-08-07T11:06:42.523Z,24.96
2022-08-07T11:10:08.855Z,24.76
2022-08-07T11:12:32.222Z,24.70
2022-08-07T11:15:17.260Z,24.70
2022-08-07T11:17:54.197Z,24.79
2022-08-07T11:20:29.546Z,24.69
2022-08-07T11:23:09.264Z,24.74
2022-08-07T11:25:48.165Z,24.96
2022-08-07T11:28:24.870Z,25.11
2022-08-07T11:30:54.314Z,25.20
2022-08-07T11:34:00.092Z,25.27
2022-08-07T11:36:41.675Z,25.43
2022-08-07T11:39:23.456Z,25.51
2022-08-07T11:42:19.501Z,25.55
2022-08-07T11:45:12.990Z,25.47
2022-08-07T11:47:59.027Z,25.52
2022-08-07T11:50:57.936Z,25.54
2022-08-07T11:54:01.764Z,25.38
2022-08-07T11:56:53.128Z,25.36
2022-08-07T12:00:10.083Z,25.31
2022-08-07T12:03:44.541Z,25.34
2022-08-07T12:06:37.639Z,25.06
2022-08-07T12:09:31.998Z,24.87
2022-08-07T12:12:13.785Z,24.75
2022-08-07T12:15:01.673Z,24.81
2022-08-07T12:17:37.232Z,24.87
2022-08-07T12:20:18.491Z,24.92
2022-08-07T12:24:05.736Z,24.99
2022-08-07T12:26:47.049Z,25.07
2022-08-07T12:29:38.179Z,25.16
2022-08-07T12:32:39.603Z,25.22
2022-08-07T12:35:11.953Z,25.25
2022-08-07T12:38:11.288Z,25.26
2022-08-07T12:40:47.560Z,25.21
2022-08-07T12:44:02.540Z,25.27
2022-08-07T12:46:26.378Z,25.32
2022-08-07T12:49:10.130Z,25.36
2022-08-07T12:52:14.548Z,25.38
2022-08-07T12:54:59.022Z,25.38
2022-08-07T12:57:38.955Z,25.38
2022-08-07T13:00:50.088Z,25.47
2022-08-07T13:04:00.648Z,25.51
2022-08-07T13:06:37.014Z,25.53
2022-08-07T13:10:21.532Z,25.50
2022-08-07T13:12:43.544Z,25.38
2022-08-07T13:15:51.188Z,25.24
2022-08-07T13:18:30.475Z,24.96
2022-08-07T13:21:12.585Z,24.82
2022-08-07T13:24:04.046Z,24.78
2022-08-07T13:26:46.073Z,24.80
2022-08-07T13:29:19.954Z,24.77
2022-08-07T13:32:32.404Z,24.82
2022-08-07T13:35:08.823Z,24.89
2022-08-07T13:37:58.641Z,24.99
2022-08-07T13:40:36.606Z,24.89
2022-08-07T13:43:15.402Z,24.89
2022-08-07T13:46:12.157Z,24.97
2022-08-07T13:48:40.730Z,25.04
2022-08-07T13:51:28.031Z,25.10
2022-08-07T13:54:03.732Z,25.10
2022-08-07T13:56:41.306Z,25.06
2022-08-07T13:59:27.577Z,25.05
2022-08-07T14:02:16.513Z,25.05
2022-08-07T14:04:55.115Z,25.07
2022-08-07T14:07:31.127Z,25.11
2022-08-07T14:10:15.650Z,25.08
2022-08-07T14:12:54.074Z,25.05
2022-08-07T14:15:35.241Z,25.07
2022-08-07T14:18:23.766Z,25.07
2022-08-07T14:21:20.953Z,25.05
2022-08-07T14:24:03.763Z,25.15
2022-08-07T14:26:40.729Z,25.14
2022-08-07T14:30:07.365Z,25.14
2022-08-07T14:32:13.287Z,25.19
2022-08-07T14:34:45.876Z,25.21
2022-08-07T14:37:18.985Z,25.24
2022-08-07T14:40:15.804Z,25.28
2022-08-07T14:43:55.239Z,25.29
2022-08-07T14:45:46.896Z,25.34
2022-08-07T14:48:20.400Z,25.27
2022-08-07T14:51:01.684Z,25.18
2022-08-07T14:56:30.090Z,25.03
2022-08-07T14:59:14.128Z,25.10
2022-08-07T15:01:54.361Z,25.21
2022-08-07T15:04:28.979Z,25.26
2022-08-07T15:10:00.765Z,25.42
2022-08-07T15:15:38.470Z,25.37
2022-08-07T15:21:08.305Z,25.32
2022-08-07T15:25:15.012Z,25.26
2022-08-07T15:26:55.666Z,25.18
2022-08-07T15:30:09.568Z,25.09
2022-08-07T15:32:17.643Z,25.10
2022-08-07T15:35:07.222Z,25.05
2022-08-07T15:38:04.813Z,25.02
2022-08-07T15:40:33.851Z,24.98
2022-08-07T15:43:53.537Z,24.94
2022-08-07T15:46:47.361Z,24.93
2022-08-07T15:50:03.986Z,24.88
2022-08-07T15:52:30.712Z,24.88
2022-08-07T15:55:03.337Z,24.83
2022-08-07T15:57:48.155Z,24.78
2022-08-07T16:00:31.100Z,24.70
2022-08-07T16:03:04.980Z,24.63
2022-08-07T16:05:34.731Z,24.54
2022-08-07T16:08:30.285Z,24.38
2022-08-07T16:11:27.240Z,24.30
2022-08-07T16:14:03.440Z,24.26
2022-08-07T16:16:57.816Z,24.26
2022-08-07T16:19:59.519Z,24.24
2022-08-07T16:22:33.882Z,24.23
2022-08-07T16:25:23.092Z,24.20
2022-08-07T16:30:05.662Z,24.14
2022-08-07T16:31:51.108Z,24.08
2022-08-07T16:34:48.811Z,24.03
2022-08-07T16:38:04.399Z,24.03
2022-08-07T16:40:35.370Z,23.99
2022-08-07T16:44:06.303Z,23.99
2022-08-07T16:47:07.843Z,23.95
2022-08-07T16:50:28.245Z,23.91
2022-08-07T16:53:55.393Z,23.86
2022-08-07T16:56:07.498Z,23.84
2022-08-07T16:59:14.450Z,23.84
2022-08-07T17:02:03.889Z,23.83
2022-08-07T17:04:51.016Z,23.82
2022-08-07T17:07:51.556Z,23.79
2022-08-07T17:10:33.912Z,23.72
2022-08-07T17:14:19.049Z,23.71
2022-08-07T17:17:01.110Z,23.66
2022-08-07T17:20:02.543Z,23.62
2022-08-07T17:22:37.764Z,23.60
2022-08-07T17:25:19.268Z,23.57
2022-08-07T17:28:10.099Z,23.53
2022-08-07T17:31:15.597Z,23.44
2022-08-07T17:34:17.950Z,23.39
2022-08-07T17:36:57.792Z,23.34
2022-08-07T17:39:57.698Z,23.33
2022-08-07T17:42:59.620Z,23.30
2022-08-07T17:45:46.696Z,23.23
2022-08-07T17:48:31.132Z,23.17
2022-08-07T17:51:21.569Z,23.14
2022-08-07T17:54:39.711Z,23.11
2022-08-07T17:57:32.035Z,23.09
2022-08-07T18:00:32.755Z,23.03
2022-08-07T18:03:25.623Z,22.97
2022-08-07T18:06:09.515Z,22.93
2022-08-07T18:09:01.857Z,22.91
2022-08-07T18:12:16.403Z,22.88
2022-08-07T18:14:56.374Z,22.83
2022-08-07T18:18:46.070Z,22.79
2022-08-07T18:21:12.638Z,22.70
2022-08-07T18:23:42.970Z,22.67
2022-08-07T18:26:17.462Z,22.62
2022-08-07T18:30:06.026Z,22.56
2022-08-07T18:32:31.545Z,22.51
2022-08-07T18:35:17.938Z,22.44
2022-08-07T18:38:59.368Z,22.34
2022-08-07T18:41:20.554Z,22.29
2022-08-07T18:44:09.218Z,22.26
2022-08-07T18:46:46.236Z,22.24
2022-08-07T18:50:30.206Z,22.20
2022-08-07T18:52:54.434Z,22.14
2022-08-07T18:55:40.597Z,22.10
2022-08-07T18:58:26.248Z,22.02
2022-08-07T19:01:09.230Z,21.98
2022-08-07T19:04:09.592Z,21.92
2022-08-07T19:06:53.255Z,21.85
2022-08-07T19:09:55.329Z,21.75
2022-08-07T19:13:10.094Z,21.67
2022-08-07T19:16:04.841Z,21.59
2022-08-07T19:18:45.096Z,21.53
2022-08-07T19:21:48.002Z,21.43
2022-08-07T19:24:30.040Z,21.30
2022-08-07T19:28:58.901Z,21.20
2022-08-07T19:31:05.897Z,21.13
2022-08-07T19:32:47.476Z,21.05
2022-08-07T19:35:24.612Z,20.89
2022-08-07T19:37:59.533Z,20.83
2022-08-07T19:40:33.419Z,20.77
2022-08-07T19:43:12.708Z,20.70
2022-08-07T19:46:04.698Z,20.59
2022-08-07T19:48:44.023Z,20.49
2022-08-07T19:51:19.589Z,20.38
2022-08-07T19:54:30.945Z,20.28
2022-08-07T19:57:56.638Z,20.21
2022-08-07T19:59:44.671Z,20.10
2022-08-07T20:02:19.716Z,20.02
2022-08-07T20:04:52.004Z,19.91
2022-08-07T20:07:47.566Z,19.78
2022-08-07T20:10:37.166Z,19.60
2022-08-07T20:13:23.773Z,19.46
2022-08-07T20:15:58.324Z,19.35
2022-08-07T20:18:32.507Z,19.30
2022-08-07T20:21:02.944Z,19.23
2022-08-07T20:23:43.223Z,19.20
2022-08-07T20:26:29.940Z,19.11
2022-08-07T20:29:10.750Z,19.01
2022-08-07T20:31:53.935Z,18.90
2022-08-07T20:34:49.266Z,18.80
2022-08-07T20:37:17.308Z,18.72
2022-08-07T20:40:02.219Z,18.63
2022-08-07T20:42:33.068Z,18.62
2022-08-07T20:45:04.586Z,18.58
2022-08-07T20:47:56.659Z,18.50
2022-08-07T20:50:30.555Z,18.40
2022-08-07T20:53:00.478Z,18.30
2022-08-07T20:55:32.224Z,18.27
2022-08-07T20:58:12.283Z,18.24
2022-08-07T21:00:56.196Z,18.17
2022-08-07T21:03:26.450Z,18.11
2022-08-07T21:06:03.698Z,18.02
2022-08-07T21:09:14.200Z,17.91
2022-08-07T21:11:50.961Z,17.84
2022-08-07T21:14:33.617Z,17.77
2022-08-07T21:18:02.950Z,17.71
2022-08-07T21:20:01.088Z,17.63
2022-08-07T21:22:37.543Z,17.60
2022-08-07T21:25:19.710Z,17.55
2022-08-07T21:28:11.206Z,17.48
2022-08-07T21:30:58.942Z,17.41
2022-08-07T21:33:55.230Z,17.34
2022-08-07T21:36:33.061Z,17.26
2022-08-07T21:39:48.130Z,17.19
2022-08-07T21:42:46.807Z,17.10
2022-08-07T21:46:10.419Z,17.01
2022-08-07T21:48:43.950Z,16.92
2022-08-07T21:51:34.472Z,16.85
2022-08-07T21:54:50.304Z,16.78
2022-08-07T21:57:44.484Z,16.75
2022-08-07T22:00:25.115Z,16.69
2022-08-07T22:03:18.760Z,16.64
2022-08-07T22:06:29.985Z,16.55
2022-08-07T22:09:01.118Z,16.48
2022-08-07T22:11:53.078Z,16.41
2022-08-07T22:14:36.298Z,16.30
2022-08-07T22:17:07.303Z,16.31
2022-08-07T22:19:58.880Z,16.30
2022-08-07T22:22:40.091Z,16.25
2022-08-07T22:25:28.726Z,16.20
2022-08-07T22:28:29.881Z,16.16
2022-08-07T22:31:09.582Z,16.15
2022-08-07T22:33:57.169Z,16.12
2022-08-07T22:36:52.596Z,16.08
2022-08-07T22:39:35.424Z,16.04
2022-08-07T22:42:30.382Z,16.00
2022-08-07T22:45:03.718Z,15.98
2022-08-07T22:48:31.720Z,15.92
2022-08-07T22:50:58.960Z,15.83
2022-08-07T22:54:06.305Z,15.84
2022-08-07T22:56:35.123Z,15.81
2022-08-07T22:59:20.075Z,15.82
2022-08-07T23:02:07.629Z,15.79
2022-08-07T23:04:56.693Z,15.75
2022-08-07T23:07:55.689Z,15.68
2022-08-07T23:11:04.511Z,15.61
2022-08-07T23:14:16.643Z,15.51
2022-08-07T23:16:55.562Z,15.44
2022-08-07T23:20:04.029Z,15.37
2022-08-07T23:23:12.167Z,15.32
2022-08-07T23:26:01.540Z,15.28
2022-08-07T23:29:03.606Z,15.24
2022-08-07T23:34:18.693Z,15.17
2022-08-07T23:35:14.481Z,15.09
2022-08-07T23:38:09.551Z,15.03
2022-08-07T23:41:09.441Z,15.00
2022-08-07T23:44:17.037Z,14.99
2022-08-07T23:47:00.147Z,15.01
2022-08-07T23:50:06.887Z,14.98
2022-08-07T23:53:17.343Z,14.93
2022-08-07T23:56:01.126Z,14.87
2022-08-07T23:58:42.285Z,14.80
